In Rescue
 
Open Full Screen Window  High Contrast Mode
Wind Gusting 00 knots
07
May 25, 2022 10:06 PM CDT
Present Weather: Rain
Weather Information
Wind Direction
  010 °
Wind Speed
  07 kt (8 mph)
Wind Gust
  00 kt (0 mph)
Altimeter
29.83 in
Visibility
10 SM
Temperature
09° C
48° F
Dewpoint
09° C
48° F
Humidity
100%
1hr Rain Fall
00.00 in.
24hr Rain Fall
00.14 in.
Sky Condition
Overcast @ 1,300 ft
Broken @ 1,000 ft
MVFR

METAR KLVN 260306Z AUTO 01007KT 10SM RA BKN010 OVC013 09/09 A2983 RMK AO2

FAA Disclaimer: The data displayed is for advisory purposes only and is not to be used for flight planning or operations.